createdAt,value
2022-10-17T00:01:44.772Z,7.15
2022-10-17T00:04:11.113Z,6.78
2022-10-17T00:06:37.462Z,7.47
2022-10-17T00:09:04.078Z,7.40
2022-10-17T00:11:30.397Z,7.63
2022-10-17T00:13:56.716Z,6.82
2022-10-17T00:16:27.466Z,7.78
2022-10-17T00:18:54.292Z,7.90
2022-10-17T00:21:21.686Z,7.82
2022-10-17T00:23:48.003Z,7.75
2022-10-17T00:26:14.898Z,8.00
2022-10-17T00:28:41.216Z,8.23
2022-10-17T00:31:10.167Z,7.95
2022-10-17T00:33:36.953Z,7.28
2022-10-17T00:36:11.236Z,7.97
2022-10-17T00:38:37.575Z,8.50
2022-10-17T00:41:04.541Z,8.68
2022-10-17T00:43:48.408Z,7.70
2022-10-17T00:46:15.103Z,7.70
2022-10-17T00:48:41.852Z,8.02
2022-10-17T00:51:08.304Z,7.97
2022-10-17T00:53:35.451Z,8.23
2022-10-17T00:56:01.932Z,8.45
2022-10-17T00:58:28.394Z,7.68
2022-10-17T01:00:54.672Z,8.13
2022-10-17T01:03:21.162Z,7.68
2022-10-17T01:05:47.451Z,8.07
2022-10-17T01:08:14.062Z,8.75
2022-10-17T01:10:55.165Z,8.43
2022-10-17T01:13:29.989Z,8.52
2022-10-17T01:16:05.686Z,8.40
2022-10-17T01:18:47.760Z,8.50
2022-10-17T01:21:20.271Z,8.20
2022-10-17T01:24:06.714Z,8.93
2022-10-17T01:26:50.218Z,8.90
2022-10-17T01:29:16.780Z,8.20
2022-10-17T01:31:49.890Z,8.05
2022-10-17T01:34:22.295Z,8.48
2022-10-17T01:37:14.818Z,8.75
2022-10-17T01:39:56.706Z,8.25
2022-10-17T01:42:32.287Z,8.43
2022-10-17T01:45:02.044Z,8.02
2022-10-17T01:47:30.844Z,8.85
2022-10-17T01:49:59.855Z,8.45
2022-10-17T01:52:33.526Z,7.97
2022-10-17T01:55:11.990Z,8.93
2022-10-17T01:57:40.712Z,9.07
2022-10-17T02:00:09.787Z,8.93
2022-10-17T02:02:39.822Z,9.90
2022-10-17T02:05:06.840Z,9.27
2022-10-17T02:07:33.210Z,9.45
2022-10-17T02:09:59.499Z,10.48
2022-10-17T02:12:35.001Z,10.02
2022-10-17T02:15:07.691Z,10.52
2022-10-17T02:17:50.899Z,11.25
2022-10-17T02:20:21.230Z,10.30
2022-10-17T02:22:51.382Z,10.27
2022-10-17T02:25:23.591Z,10.33
2022-10-17T02:27:56.382Z,11.32
2022-10-17T02:30:28.587Z,11.27
2022-10-17T02:32:59.809Z,11.27
2022-10-17T02:35:29.439Z,10.60
2022-10-17T02:37:56.495Z,11.15
2022-10-17T02:40:24.371Z,10.77
2022-10-17T02:42:52.849Z,11.38
2022-10-17T02:45:20.147Z,10.98
2022-10-17T02:47:54.256Z,11.43
2022-10-17T02:50:22.639Z,11.82
2022-10-17T02:52:52.743Z,11.25
2022-10-17T02:55:29.449Z,11.63
2022-10-17T02:58:00.816Z,12.23
2022-10-17T03:00:28.724Z,10.98
2022-10-17T03:02:55.950Z,11.55
2022-10-17T03:05:23.359Z,11.25
2022-10-17T03:07:50.076Z,11.63
2022-10-17T03:10:17.309Z,11.27
2022-10-17T03:12:43.758Z,10.63
2022-10-17T03:15:11.718Z,10.50
2022-10-17T03:17:38.107Z,10.52
2022-10-17T03:20:05.235Z,10.30
2022-10-17T03:22:32.272Z,10.05
2022-10-17T03:25:00.886Z,10.55
2022-10-17T03:27:28.904Z,9.93
2022-10-17T03:29:55.745Z,9.80
2022-10-17T03:32:22.120Z,10.82
2022-10-17T03:34:48.479Z,11.40
2022-10-17T03:37:15.332Z,10.13
2022-10-17T03:39:42.174Z,10.85
2022-10-17T03:42:08.792Z,10.25
2022-10-17T03:44:35.207Z,9.80
2022-10-17T03:47:01.598Z,9.57
2022-10-17T03:49:27.912Z,9.27
2022-10-17T03:51:54.216Z,9.50
2022-10-17T03:54:20.650Z,9.35
2022-10-17T03:56:47.036Z,10.10
2022-10-17T03:59:17.125Z,10.25
2022-10-17T04:01:50.883Z,10.13
2022-10-17T04:04:18.468Z,9.35
2022-10-17T04:06:44.771Z,9.80
2022-10-17T04:09:11.254Z,9.85
2022-10-17T04:11:47.296Z,10.52
2022-10-17T04:14:14.307Z,10.27
2022-10-17T04:16:41.696Z,10.40
2022-10-17T04:19:13.656Z,9.93
2022-10-17T04:21:43.972Z,10.15
2022-10-17T04:24:11.388Z,9.50
2022-10-17T04:26:44.019Z,10.10
2022-10-17T04:29:10.866Z,10.57
2022-10-17T04:31:37.967Z,9.90
2022-10-17T04:34:19.014Z,9.95
2022-10-17T04:36:47.026Z,9.85
2022-10-17T04:41:40.677Z,10.57
2022-10-17T04:44:07.214Z,9.68
2022-10-17T04:46:37.935Z,10.05
2022-10-17T04:49:05.642Z,10.18
2022-10-17T04:51:32.562Z,9.65
2022-10-17T04:54:16.608Z,9.20
2022-10-17T04:56:47.464Z,9.38
2022-10-17T04:59:14.462Z,9.23
2022-10-17T05:01:43.468Z,9.30
2022-10-17T05:04:10.180Z,9.00
2022-10-17T05:06:37.663Z,9.60
2022-10-17T05:09:27.078Z,9.37
2022-10-17T05:11:53.999Z,9.20
2022-10-17T05:14:20.439Z,9.27
2022-10-17T05:16:47.634Z,8.60
2022-10-17T05:19:14.083Z,8.75
2022-10-17T05:21:46.318Z,9.43
2022-10-17T05:24:14.148Z,9.43
2022-10-17T05:26:40.719Z,9.43
2022-10-17T05:29:07.171Z,8.63
2022-10-17T05:31:37.531Z,9.10
2022-10-17T05:34:07.991Z,8.65
2022-10-17T05:36:37.592Z,8.70
2022-10-17T05:39:04.922Z,9.02
2022-10-17T05:41:32.947Z,9.20
2022-10-17T05:44:01.797Z,8.88
2022-10-17T05:46:39.453Z,8.77
2022-10-17T05:49:15.114Z,8.88
2022-10-17T05:51:52.399Z,9.40
2022-10-17T05:54:18.859Z,9.38
2022-10-17T05:56:45.509Z,8.68
2022-10-17T05:59:11.941Z,9.40
2022-10-17T06:01:58.548Z,9.18
2022-10-17T06:04:27.741Z,9.15
2022-10-17T06:06:56.168Z,8.82
2022-10-17T06:09:23.345Z,9.43
2022-10-17T06:11:52.315Z,8.52
2022-10-17T06:14:20.009Z,9.38
2022-10-17T06:16:49.114Z,8.73
2022-10-17T06:19:15.967Z,8.60
2022-10-17T06:21:42.475Z,8.75
2022-10-17T06:24:13.144Z,8.80
2022-10-17T06:26:41.569Z,9.38
2022-10-17T06:29:10.297Z,8.75
2022-10-17T06:31:42.783Z,9.07
2022-10-17T06:34:09.200Z,8.93
2022-10-17T06:36:37.683Z,9.07
2022-10-17T06:39:05.034Z,8.95
2022-10-17T06:41:36.816Z,8.63
2022-10-17T06:44:10.856Z,8.50
2022-10-17T06:46:56.677Z,8.65
2022-10-17T06:49:23.249Z,8.88
2022-10-17T06:52:18.769Z,8.60
2022-10-17T06:55:07.447Z,8.88
2022-10-17T06:57:47.899Z,8.57
2022-10-17T07:00:40.208Z,8.50
2022-10-17T07:03:07.015Z,9.18
2022-10-17T07:05:33.423Z,8.23
2022-10-17T07:07:59.805Z,8.45
2022-10-17T07:10:26.596Z,8.77
2022-10-17T07:12:52.908Z,8.50
2022-10-17T07:15:19.225Z,8.38
2022-10-17T07:17:48.332Z,8.32
2022-10-17T07:22:42.731Z,8.23
2022-10-17T07:25:09.810Z,8.68
2022-10-17T07:27:43.303Z,8.75
2022-10-17T07:30:10.208Z,8.65
2022-10-17T07:32:46.203Z,8.57
2022-10-17T07:35:14.395Z,8.48
2022-10-17T07:37:41.662Z,8.75
2022-10-17T07:40:08.435Z,8.43
2022-10-17T07:42:37.126Z,8.55
2022-10-17T07:45:03.900Z,8.98
2022-10-17T07:47:35.450Z,8.80
2022-10-17T07:50:02.803Z,8.70
2022-10-17T07:52:29.320Z,9.60
2022-10-17T07:54:55.847Z,9.98
2022-10-17T07:57:22.273Z,9.35
2022-10-17T07:59:48.608Z,9.77
2022-10-17T08:02:21.536Z,10.07
2022-10-17T08:04:48.029Z,9.85
2022-10-17T08:07:22.048Z,9.38
2022-10-17T08:09:50.861Z,9.02
2022-10-17T08:12:17.652Z,10.23
2022-10-17T08:14:44.312Z,9.43
2022-10-17T08:17:10.799Z,9.68
2022-10-17T08:19:40.643Z,9.20
2022-10-17T08:22:07.225Z,10.05
2022-10-17T08:24:34.702Z,10.32
2022-10-17T08:27:01.071Z,10.73
2022-10-17T08:29:27.597Z,10.85
2022-10-17T08:32:00.801Z,10.98
2022-10-17T08:34:29.177Z,10.45
2022-10-17T08:36:55.527Z,10.85
2022-10-17T08:39:21.945Z,10.32
2022-10-17T08:41:54.573Z,11.15
2022-10-17T08:44:36.872Z,11.30
2022-10-17T08:47:05.292Z,11.63
2022-10-17T08:49:41.111Z,10.68
2022-10-17T08:52:16.681Z,11.50
2022-10-17T08:54:46.006Z,12.30
2022-10-17T08:57:16.874Z,11.68
2022-10-17T09:02:12.587Z,10.98
2022-10-17T09:04:54.321Z,11.90
2022-10-17T09:07:30.545Z,12.68
2022-10-17T09:09:57.040Z,12.88
2022-10-17T09:12:41.577Z,12.77
2022-10-17T09:15:26.694Z,11.70
2022-10-17T09:17:58.368Z,12.35
2022-10-17T09:20:36.849Z,12.70
2022-10-17T09:23:03.253Z,12.45
2022-10-17T09:25:32.195Z,13.50
2022-10-17T09:28:12.363Z,12.80
2022-10-17T09:30:47.234Z,12.23
2022-10-17T09:33:34.765Z,12.55
2022-10-17T09:36:17.054Z,13.50
2022-10-17T09:38:50.787Z,11.93
2022-10-17T09:41:46.380Z,13.35
2022-10-17T09:44:23.812Z,13.85
2022-10-17T09:46:50.088Z,14.35
2022-10-17T09:49:18.443Z,13.32
2022-10-17T09:51:44.718Z,13.27
2022-10-17T09:54:20.040Z,12.68
2022-10-17T09:57:03.084Z,12.70
2022-10-17T10:02:28.945Z,12.68
2022-10-17T10:05:06.053Z,12.23
2022-10-17T10:07:39.085Z,12.40
2022-10-17T10:10:23.975Z,12.63
2022-10-17T10:13:04.992Z,12.30
2022-10-17T10:15:33.919Z,12.77
2022-10-17T10:20:41.632Z,13.52
2022-10-17T10:23:12.500Z,13.05
2022-10-17T10:28:10.602Z,11.25
2022-10-17T10:30:39.163Z,12.23
2022-10-17T10:33:06.467Z,12.95
2022-10-17T10:35:36.190Z,12.07
2022-10-17T10:38:03.808Z,12.32
2022-10-17T10:40:37.271Z,10.85
2022-10-17T10:43:05.723Z,11.23
2022-10-17T10:45:53.593Z,11.40
2022-10-17T10:48:27.603Z,10.85
2022-10-17T10:50:59.052Z,10.38
2022-10-17T10:53:47.195Z,10.75
2022-10-17T10:56:37.016Z,9.90
2022-10-17T10:59:12.648Z,10.52
2022-10-17T11:01:51.754Z,9.23
2022-10-17T11:04:37.110Z,8.85
2022-10-17T11:07:22.555Z,8.60
2022-10-17T11:10:01.204Z,10.30
2022-10-17T11:12:31.504Z,9.50
2022-10-17T11:15:01.912Z,8.03
2022-10-17T11:17:34.256Z,8.13
2022-10-17T11:20:09.824Z,6.65
2022-10-17T11:22:42.092Z,6.47
2022-10-17T11:25:12.907Z,5.75
2022-10-17T11:30:06.023Z,5.60
2022-10-17T11:32:39.732Z,5.47
2022-10-17T11:35:15.185Z,5.97
2022-10-17T11:37:48.315Z,6.20
2022-10-17T11:40:20.390Z,7.28
2022-10-17T11:42:56.942Z,7.78
2022-10-17T11:45:26.128Z,8.15
2022-10-17T11:47:59.949Z,8.73
2022-10-17T11:53:20.529Z,8.40
2022-10-17T11:55:47.195Z,9.32
2022-10-17T11:58:36.558Z,8.90
2022-10-17T12:01:02.946Z,9.02
2022-10-17T12:03:32.614Z,9.13
2022-10-17T12:05:58.976Z,8.65
2022-10-17T12:08:40.372Z,7.97
2022-10-17T12:11:09.806Z,8.52
2022-10-17T12:13:37.357Z,8.57
2022-10-17T12:16:19.091Z,9.10
2022-10-17T12:18:49.718Z,8.65
2022-10-17T12:21:16.032Z,8.80
2022-10-17T12:23:51.459Z,6.45
2022-10-17T12:26:26.005Z,6.30
2022-10-17T12:28:52.691Z,6.30
2022-10-17T12:31:19.984Z,5.13
2022-10-17T12:33:46.376Z,4.88
2022-10-17T12:36:20.979Z,4.93
2022-10-17T12:39:02.716Z,4.70
2022-10-17T12:41:38.226Z,4.53
2022-10-17T12:44:14.130Z,5.00
2022-10-17T12:46:42.360Z,5.38
2022-10-17T12:49:22.533Z,5.13
2022-10-17T12:52:07.828Z,5.40
2022-10-17T12:54:47.832Z,5.28
2022-10-17T12:57:22.823Z,4.82
2022-10-17T12:59:49.334Z,4.70
2022-10-17T13:02:20.555Z,5.18
2022-10-17T13:04:47.929Z,4.85
2022-10-17T13:07:23.513Z,5.40
2022-10-17T13:09:50.320Z,5.10
2022-10-17T13:12:20.181Z,5.60
2022-10-17T13:14:47.253Z,5.80
2022-10-17T13:17:27.628Z,5.95
2022-10-17T13:19:54.553Z,5.38
2022-10-17T13:22:20.841Z,5.53
2022-10-17T13:24:47.804Z,5.78
2022-10-17T13:27:33.559Z,5.80
2022-10-17T13:30:01.120Z,5.68
2022-10-17T13:32:35.847Z,5.57
2022-10-17T13:35:09.902Z,6.05
2022-10-17T13:37:36.779Z,6.50
2022-10-17T13:40:17.533Z,6.55
2022-10-17T13:42:50.687Z,6.90
2022-10-17T13:45:29.623Z,6.50
2022-10-17T13:47:56.411Z,6.72
2022-10-17T13:50:43.614Z,6.50
2022-10-17T13:53:17.295Z,7.20
2022-10-17T13:56:09.523Z,7.20
2022-10-17T13:58:41.116Z,7.25
2022-10-17T14:01:08.613Z,7.32
2022-10-17T14:03:47.912Z,6.75
2022-10-17T14:06:15.196Z,7.90
2022-10-17T14:08:50.156Z,6.70
2022-10-17T14:11:21.984Z,6.90
2022-10-17T14:13:49.580Z,7.72
2022-10-17T14:16:16.290Z,7.00
2022-10-17T14:18:47.335Z,8.18
2022-10-17T14:24:16.198Z,7.60
2022-10-17T14:26:48.761Z,7.55
2022-10-17T14:29:20.992Z,7.72
2022-10-17T14:31:50.475Z,7.65
2022-10-17T14:34:21.828Z,8.10
2022-10-17T14:36:50.602Z,7.90
2022-10-17T14:39:21.914Z,6.70
2022-10-17T14:41:49.053Z,7.15
2022-10-17T14:44:20.804Z,6.35
2022-10-17T14:46:51.005Z,6.70
2022-10-17T14:49:24.527Z,6.30
2022-10-17T14:52:14.890Z,7.53
2022-10-17T14:54:50.005Z,6.68
2022-10-17T14:57:22.686Z,6.75
2022-10-17T14:59:54.285Z,7.75
2022-10-17T15:02:21.948Z,7.80
2022-10-17T15:04:48.327Z,7.90
2022-10-17T15:07:16.210Z,8.48
2022-10-17T15:09:43.418Z,8.23
2022-10-17T15:12:17.562Z,7.25
2022-10-17T15:14:44.378Z,8.30
2022-10-17T15:17:30.487Z,8.25
2022-10-17T15:19:57.080Z,8.13
2022-10-17T15:22:23.789Z,8.27
2022-10-17T15:24:50.158Z,7.47
2022-10-17T15:27:18.299Z,8.15
2022-10-17T15:29:44.818Z,7.40
2022-10-17T15:32:11.366Z,8.02
2022-10-17T15:34:37.792Z,7.32
2022-10-17T15:37:04.704Z,7.85
2022-10-17T15:39:30.997Z,8.30
2022-10-17T15:41:57.413Z,7.65
2022-10-17T15:44:24.092Z,7.65
2022-10-17T15:49:30.681Z,6.60
2022-10-17T15:51:56.950Z,7.43
2022-10-17T15:54:23.456Z,7.20
2022-10-17T15:56:52.918Z,7.38
2022-10-17T15:59:21.730Z,7.53
2022-10-17T16:01:48.650Z,7.72
2022-10-17T16:04:15.840Z,7.38
2022-10-17T16:06:42.980Z,7.65
2022-10-17T16:09:09.351Z,8.00
2022-10-17T16:11:37.395Z,7.38
2022-10-17T16:14:05.385Z,8.10
2022-10-17T16:16:32.039Z,7.15
2022-10-17T16:18:58.455Z,7.60
2022-10-17T16:21:32.405Z,7.70
2022-10-17T16:23:59.382Z,7.68
2022-10-17T16:26:26.423Z,7.70
2022-10-17T16:28:53.061Z,7.40
2022-10-17T16:31:24.515Z,6.82
2022-10-17T16:33:52.121Z,6.88
2022-10-17T16:38:59.167Z,7.20
2022-10-17T16:41:26.984Z,7.07
2022-10-17T16:43:54.317Z,7.05
2022-10-17T16:46:21.228Z,7.30
2022-10-17T16:48:47.775Z,6.70
2022-10-17T16:56:23.425Z,5.90
2022-10-17T16:58:50.429Z,5.90
2022-10-17T17:01:18.836Z,5.97
2022-10-17T17:03:46.215Z,5.22
2022-10-17T17:06:14.266Z,5.93
2022-10-17T17:08:41.650Z,5.25
2022-10-17T17:11:08.669Z,5.00
2022-10-17T17:13:36.185Z,5.18
2022-10-17T17:16:06.449Z,5.03
2022-10-17T17:18:33.175Z,4.70
2022-10-17T17:21:00.786Z,5.32
2022-10-17T17:23:27.549Z,4.78
2022-10-17T17:26:00.871Z,4.75
2022-10-17T17:28:27.856Z,3.65
2022-10-17T17:30:55.200Z,4.22
2022-10-17T17:33:25.188Z,4.72
2022-10-17T17:35:55.041Z,5.17
2022-10-17T17:38:21.435Z,5.10
2022-10-17T17:40:50.670Z,5.18
2022-10-17T17:43:18.173Z,4.38
2022-10-17T17:45:44.456Z,4.78
2022-10-17T17:48:11.011Z,3.85
2022-10-17T17:50:37.596Z,4.40
2022-10-17T17:53:04.695Z,4.30
2022-10-17T17:55:31.270Z,4.60
2022-10-17T17:57:57.671Z,4.38
2022-10-17T18:00:24.421Z,5.20
2022-10-17T18:02:51.051Z,4.45
2022-10-17T18:05:17.696Z,5.38
2022-10-17T18:07:44.041Z,5.55
2022-10-17T18:15:22.220Z,5.15
2022-10-17T18:17:49.099Z,5.40
2022-10-17T18:20:15.944Z,5.22
2022-10-17T18:22:42.249Z,5.63
2022-10-17T18:25:08.710Z,5.72
2022-10-17T18:27:35.138Z,5.97
2022-10-17T18:30:01.798Z,6.65
2022-10-17T18:32:30.053Z,7.30
2022-10-17T18:34:56.591Z,6.65
2022-10-17T18:37:22.985Z,6.82
2022-10-17T18:39:51.554Z,7.70
2022-10-17T18:42:18.247Z,7.35
2022-10-17T18:44:44.760Z,7.82
2022-10-17T18:47:11.398Z,7.53
2022-10-17T18:49:37.762Z,7.32
2022-10-17T18:52:04.283Z,7.45
2022-10-17T18:54:33.305Z,8.25
2022-10-17T18:56:59.600Z,6.68
2022-10-17T18:59:25.905Z,7.63
2022-10-17T19:01:52.314Z,7.18
2022-10-17T19:04:18.914Z,7.32
2022-10-17T19:06:45.260Z,6.97
2022-10-17T19:09:12.684Z,7.47
2022-10-17T19:11:39.102Z,7.28
2022-10-17T19:14:13.019Z,7.68
2022-10-17T19:16:49.490Z,7.93
2022-10-17T19:19:18.807Z,7.93
2022-10-17T19:21:45.553Z,8.68
2022-10-17T19:24:13.527Z,7.80
2022-10-17T19:26:40.701Z,8.20
2022-10-17T19:29:07.240Z,8.65
2022-10-17T19:31:34.211Z,9.15
2022-10-17T19:34:00.675Z,7.97
2022-10-17T19:36:30.760Z,8.38
2022-10-17T19:39:00.861Z,8.68
2022-10-17T19:41:30.694Z,9.07
2022-10-17T19:43:57.939Z,8.98
2022-10-17T19:46:25.198Z,8.40
2022-10-17T19:48:51.887Z,10.27
2022-10-17T19:51:19.003Z,11.10
2022-10-17T19:53:45.499Z,10.77
2022-10-17T19:56:12.028Z,11.00
2022-10-17T19:58:44.885Z,8.85
2022-10-17T20:01:12.624Z,9.38
2022-10-17T20:03:38.967Z,12.55
2022-10-17T20:06:06.078Z,12.90
2022-10-17T20:08:32.488Z,10.13
2022-10-17T20:11:03.201Z,10.82
2022-10-17T20:13:29.620Z,10.30
2022-10-17T20:15:56.806Z,11.57
2022-10-17T20:18:23.661Z,14.38
2022-10-17T20:20:50.146Z,15.40
2022-10-17T20:23:16.582Z,14.48
2022-10-17T20:25:42.897Z,14.30
2022-10-17T20:28:09.319Z,15.23
2022-10-17T20:30:35.837Z,15.57
2022-10-17T20:33:02.206Z,17.55
2022-10-17T20:35:28.567Z,16.48
2022-10-17T20:37:54.929Z,17.90
2022-10-17T20:40:34.577Z,19.40
2022-10-17T20:43:01.777Z,16.98
2022-10-17T20:45:43.608Z,17.80
2022-10-17T20:48:15.432Z,17.15
2022-10-17T20:50:42.531Z,18.90
2022-10-17T20:53:35.009Z,16.52
2022-10-17T20:56:09.508Z,17.98
2022-10-17T20:58:35.852Z,17.00
2022-10-17T21:01:08.867Z,19.10
2022-10-17T21:03:37.803Z,17.58
2022-10-17T21:08:32.488Z,15.35
2022-10-17T21:11:08.558Z,15.40
2022-10-17T21:13:34.886Z,15.57
2022-10-17T21:16:05.140Z,15.52
2022-10-17T21:18:31.414Z,16.20
2022-10-17T21:21:06.081Z,16.25
2022-10-17T21:23:32.538Z,13.18
2022-10-17T21:25:59.243Z,12.98
2022-10-17T21:28:25.557Z,13.07
2022-10-17T21:30:51.877Z,13.52
2022-10-17T21:33:18.227Z,15.05
2022-10-17T21:35:44.515Z,12.75
2022-10-17T21:38:10.792Z,13.93
2022-10-17T21:40:37.071Z,12.65
2022-10-17T21:43:03.469Z,12.43
2022-10-17T21:45:29.743Z,12.70
2022-10-17T21:48:12.316Z,13.35
2022-10-17T21:50:39.326Z,17.00
2022-10-17T21:53:05.668Z,14.98
2022-10-17T21:55:32.154Z,14.30
2022-10-17T21:57:58.498Z,15.68
2022-10-17T22:00:24.774Z,16.52
2022-10-17T22:02:51.078Z,16.40
2022-10-17T22:05:17.557Z,14.40
2022-10-17T22:07:43.839Z,11.25
2022-10-17T22:10:10.130Z,10.63
2022-10-17T22:12:36.433Z,10.70
2022-10-17T22:15:03.621Z,10.82
2022-10-17T22:17:30.235Z,18.05
2022-10-17T22:19:56.705Z,13.00
2022-10-17T22:22:23.049Z,16.25
2022-10-17T22:24:49.411Z,18.50
2022-10-17T22:27:15.689Z,13.00
2022-10-17T22:29:42.011Z,13.13
2022-10-17T22:32:08.282Z,10.60
2022-10-17T22:34:34.680Z,11.27
2022-10-17T22:37:00.980Z,10.85
2022-10-17T22:39:27.266Z,11.30
2022-10-17T22:41:53.547Z,12.55
2022-10-17T22:44:19.851Z,13.07
2022-10-17T22:46:46.179Z,13.35
2022-10-17T22:49:12.507Z,12.40
2022-10-17T22:51:38.819Z,12.73
2022-10-17T22:54:05.196Z,12.13
2022-10-17T22:56:31.605Z,12.23
2022-10-17T22:58:57.936Z,13.27
2022-10-17T23:01:25.266Z,11.10
2022-10-17T23:03:52.400Z,12.40
2022-10-17T23:06:19.066Z,14.02
2022-10-17T23:08:45.369Z,13.35
2022-10-17T23:11:11.918Z,14.80
2022-10-17T23:13:39.658Z,15.38
2022-10-17T23:16:06.467Z,14.18
2022-10-17T23:18:32.806Z,16.05
2022-10-17T23:20:59.148Z,16.48
2022-10-17T23:23:25.603Z,17.65
2022-10-17T23:25:52.672Z,17.40
2022-10-17T23:28:19.061Z,15.38
2022-10-17T23:30:45.476Z,11.88
2022-10-17T23:33:12.768Z,10.95
2022-10-17T23:35:39.431Z,9.73
2022-10-17T23:38:05.752Z,9.48
2022-10-17T23:40:32.050Z,11.45
2022-10-17T23:42:58.402Z,11.23
2022-10-17T23:45:24.717Z,12.50
2022-10-17T23:47:51.019Z,12.50
2022-10-17T23:50:17.580Z,12.90
2022-10-17T23:52:43.848Z,12.95
2022-10-17T23:55:10.527Z,14.10
2022-10-17T23:57:36.836Z,14.65
